Time;durP1;ratioP1;P1;durP2;ratioP2;P2;SDS_P1;SDS_P2;PMS_P1;PMS_P2;Temp;Humidity;BMP_temperature;BMP_pressure;BME280_temperature;BME280_humidity;BME280_pressure;Samples;Min_cycle;Max_cycle;Signal;HPM_P1;HPM_P2
2023/09/17 00:00:39;;;;;;;0.30;0.30;;;22.40;99.90;;;;;;7394981;19;20134;-81
2023/09/17 00:03:05;;;;;;;0.20;0.20;;;22.40;99.90;;;;;;7392871;19;20145;-81
2023/09/17 00:05:34;;;;;;;0.30;0.30;;;22.50;99.90;;;;;;7392558;19;20150;-81
2023/09/17 00:08:00;;;;;;;0.20;0.20;;;22.40;99.90;;;;;;7395705;19;20485;-81
2023/09/17 00:10:26;;;;;;;0.30;0.30;;;22.30;99.90;;;;;;7396538;19;20143;-80
2023/09/17 00:12:53;;;;;;;0.15;0.15;;;22.20;99.90;;;;;;7393465;19;20806;-81
2023/09/17 00:15:23;;;;;;;0.40;0.30;;;22.30;99.90;;;;;;7394476;19;20170;-81
2023/09/17 00:17:49;;;;;;;0.22;0.22;;;22.30;99.90;;;;;;7395034;19;20155;-81
2023/09/17 00:20:15;;;;;;;0.30;0.30;;;22.20;99.90;;;;;;7396525;19;20152;-81
2023/09/17 00:22:41;;;;;;;0.20;0.20;;;22.10;99.90;;;;;;7392674;19;20177;-81
2023/09/17 00:25:08;;;;;;;0.30;0.30;;;21.90;99.90;;;;;;7391971;19;20206;-79
2023/09/17 00:27:34;;;;;;;0.20;0.20;;;21.80;99.90;;;;;;7393556;19;20138;-81
2023/09/17 00:30:00;;;;;;;0.20;0.20;;;21.70;99.90;;;;;;7395862;19;20139;-80
2023/09/17 00:32:26;;;;;;;0.20;0.20;;;21.70;99.90;;;;;;7393142;19;20146;-81
2023/09/17 00:34:51;;;;;;;0.20;0.20;;;21.60;99.90;;;;;;7394868;19;20130;-80
2023/09/17 00:37:18;;;;;;;1.13;0.60;;;21.60;99.90;;;;;;7395298;19;20135;-80
2023/09/17 00:39:44;;;;;;;0.22;0.22;;;21.60;99.90;;;;;;7393451;19;20565;-80
2023/09/17 00:42:10;;;;;;;0.20;0.20;;;21.70;99.90;;;;;;7392814;19;20154;-81
2023/09/17 00:44:36;;;;;;;0.13;0.13;;;21.70;99.90;;;;;;7392295;19;20135;-80
2023/09/17 00:47:04;;;;;;;0.25;0.25;;;21.70;99.90;;;;;;7392573;19;20130;-81
2023/09/17 00:49:32;;;;;;;0.30;0.30;;;21.60;99.90;;;;;;7394122;19;20139;-81
2023/09/17 00:51:58;;;;;;;0.20;0.20;;;21.60;99.90;;;;;;7391401;19;20170;-80
2023/09/17 00:54:27;;;;;;;0.38;0.38;;;21.70;99.90;;;;;;7392130;19;20547;-81
2023/09/17 00:56:52;;;;;;;0.30;0.30;;;21.60;99.90;;;;;;7393329;19;20592;-79
2023/09/17 00:59:19;;;;;;;0.20;0.20;;;21.50;99.90;;;;;;7395300;19;20152;-80
2023/09/17 01:01:45;;;;;;;0.20;0.20;;;21.50;99.90;;;;;;7392803;19;20630;-81
2023/09/17 01:04:16;;;;;;;0.28;0.28;;;21.60;99.90;;;;;;7388072;19;20170;-81
2023/09/17 01:06:43;;;;;;;0.20;0.20;;;21.60;99.90;;;;;;7392649;19;20142;-80
2023/09/17 01:09:10;;;;;;;0.20;0.20;;;21.60;99.90;;;;;;7391724;19;20180;-79
2023/09/17 01:11:36;;;;;;;0.85;0.20;;;21.40;99.90;;;;;;7392802;19;20162;-81
2023/09/17 01:14:15;;;;;;;0.38;0.30;;;21.30;99.90;;;;;;7392771;19;20142;-80
2023/09/17 01:16:45;;;;;;;0.30;0.30;;;21.40;99.90;;;;;;7394134;19;20170;-81
2023/09/17 01:19:29;;;;;;;0.20;0.20;;;21.30;99.90;;;;;;7393831;19;20149;-80
2023/09/17 01:22:20;;;;;;;0.52;0.52;;;21.40;99.90;;;;;;7389976;19;20366;-81
2023/09/17 01:24:59;;;;;;;0.20;0.20;;;21.50;99.90;;;;;;7392018;19;20141;-82
2023/09/17 01:27:26;;;;;;;0.40;0.20;;;21.50;99.90;;;;;;7394087;19;20135;-81
2023/09/17 01:29:53;;;;;;;0.30;0.30;;;21.60;99.90;;;;;;7394306;19;20134;-81
2023/09/17 01:32:20;;;;;;;0.10;0.10;;;21.70;99.90;;;;;;7392389;19;20213;-81
2023/09/17 01:34:52;;;;;;;0.30;0.30;;;21.70;99.90;;;;;;7391306;19;20227;-81
2023/09/17 01:37:23;;;;;;;0.40;0.40;;;21.70;99.90;;;;;;7392962;19;20134;-79
2023/09/17 01:40:15;;;;;;;0.10;0.10;;;21.50;99.90;;;;;;7394207;19;20208;-80
2023/09/17 01:42:45;;;;;;;0.28;0.28;;;21.40;99.90;;;;;;7384498;19;20150;-80
2023/09/17 01:45:14;;;;;;;0.20;0.20;;;21.40;99.90;;;;;;7391559;19;20154;-80
2023/09/17 01:47:45;;;;;;;0.28;0.28;;;21.20;99.90;;;;;;7390966;19;20130;-81
2023/09/17 01:50:15;;;;;;;0.20;0.20;;;21.10;99.90;;;;;;7392004;19;20490;-81
2023/09/17 01:52:44;;;;;;;0.10;0.10;;;21.40;99.90;;;;;;7385356;19;20131;-81
2023/09/17 01:55:10;;;;;;;0.50;0.50;;;21.50;99.90;;;;;;7388600;19;20126;-80
2023/09/17 01:57:36;;;;;;;0.20;0.20;;;21.40;99.90;;;;;;7392832;19;20160;-81
2023/09/17 02:00:14;;;;;;;0.15;0.15;;;21.60;99.90;;;;;;7392012;19;20146;-80
2023/09/17 02:02:47;;;;;;;0.20;0.20;;;21.90;99.90;;;;;;7389820;19;20168;-80
2023/09/17 02:05:16;;;;;;;0.20;0.20;;;21.80;99.90;;;;;;7389605;19;20332;-80
2023/09/17 02:07:42;;;;;;;0.10;0.10;;;21.60;99.90;;;;;;7392668;19;20137;-80
2023/09/17 02:10:08;;;;;;;0.30;0.30;;;21.60;99.90;;;;;;7393078;19;20127;-81
2023/09/17 02:12:33;;;;;;;0.17;0.17;;;21.50;99.90;;;;;;7392510;19;20158;-81
2023/09/17 02:14:59;;;;;;;0.15;0.10;;;21.40;99.90;;;;;;7389671;19;20469;-80
2023/09/17 02:17:25;;;;;;;0.20;0.20;;;21.50;99.90;;;;;;7389591;19;20487;-80
2023/09/17 02:19:51;;;;;;;0.30;0.30;;;21.60;99.90;;;;;;7386180;19;20828;-80
2023/09/17 02:22:17;;;;;;;0.30;0.30;;;21.70;99.90;;;;;;7390664;19;20152;-81
2023/09/17 02:24:45;;;;;;;0.13;0.13;;;21.90;99.90;;;;;;7390641;19;20150;-80
2023/09/17 02:27:10;;;;;;;0.32;0.32;;;22.00;99.90;;;;;;7390956;19;20134;-81
2023/09/17 02:29:36;;;;;;;0.30;0.30;;;22.00;99.90;;;;;;7392984;19;20223;-81
2023/09/17 02:32:03;;;;;;;0.08;0.08;;;21.80;99.90;;;;;;7392695;19;20419;-80
2023/09/17 02:34:29;;;;;;;0.10;0.10;;;21.80;99.90;;;;;;7391213;19;20137;-80
2023/09/17 02:36:55;;;;;;;0.30;0.30;;;21.60;99.90;;;;;;7389651;19;20535;-79
2023/09/17 02:39:20;;;;;;;0.30;0.30;;;21.50;99.90;;;;;;7391270;19;20127;-79
2023/09/17 02:41:55;;;;;;;0.20;0.20;;;21.70;99.90;;;;;;7424753;19;20176;-80
2023/09/17 02:44:21;;;;;;;0.28;0.28;;;21.60;99.90;;;;;;7423295;19;20134;-80
2023/09/17 02:46:47;;;;;;;0.40;0.40;;;21.70;99.90;;;;;;7422455;19;20551;-80
2023/09/17 02:49:12;;;;;;;0.28;0.25;;;21.70;99.90;;;;;;7423223;19;20138;-79
2023/09/17 02:51:39;;;;;;;0.28;0.20;;;21.50;99.90;;;;;;7423800;19;20591;-82
2023/09/17 02:54:04;;;;;;;0.13;0.13;;;21.50;99.90;;;;;;7418553;19;20147;-79
2023/09/17 02:56:30;;;;;;;0.20;0.20;;;21.40;99.90;;;;;;7424145;19;20138;-80
2023/09/17 02:58:57;;;;;;;0.40;0.40;;;21.50;99.90;;;;;;7421050;19;20155;-80
2023/09/17 03:01:24;;;;;;;0.28;0.28;;;21.50;99.90;;;;;;7420843;19;20456;-80
2023/09/17 03:03:50;;;;;;;0.20;0.20;;;21.30;99.90;;;;;;7420905;19;20150;-79
2023/09/17 03:06:16;;;;;;;0.13;0.13;;;21.00;99.90;;;;;;7421572;19;20176;-80
2023/09/17 03:08:43;;;;;;;0.17;0.17;;;20.90;99.90;;;;;;7421544;19;20138;-80
2023/09/17 03:11:13;;;;;;;0.20;0.20;;;20.90;99.90;;;;;;7423691;19;20138;-80
2023/09/17 03:13:44;;;;;;;0.10;0.10;;;20.80;99.90;;;;;;7420380;19;20162;-80
2023/09/17 03:16:12;;;;;;;0.45;0.28;;;20.60;99.90;;;;;;7421591;19;20146;-80
2023/09/17 03:18:39;;;;;;;0.20;0.20;;;20.70;99.90;;;;;;7420784;19;20153;-80
2023/09/17 03:21:08;;;;;;;0.15;0.15;;;20.60;99.90;;;;;;7420752;19;20142;-79
2023/09/17 03:23:34;;;;;;;0.30;0.30;;;20.60;99.90;;;;;;7419628;19;20578;-80
2023/09/17 03:26:01;;;;;;;0.10;0.10;;;20.60;99.90;;;;;;7422786;19;20197;-79
2023/09/17 03:28:36;;;;;;;0.20;0.20;;;20.70;99.90;;;;;;7423365;19;20147;-80
2023/09/17 03:31:04;;;;;;;0.30;0.30;;;20.70;99.90;;;;;;7420176;19;20158;-79
2023/09/17 03:33:30;;;;;;;0.20;0.20;;;20.90;99.90;;;;;;7420129;19;20190;-79
2023/09/17 03:35:57;;;;;;;0.20;0.20;;;21.20;99.90;;;;;;7420801;19;20154;-79
2023/09/17 03:38:23;;;;;;;0.10;0.10;;;21.30;99.90;;;;;;7419588;19;20214;-80
2023/09/17 03:40:49;;;;;;;0.20;0.20;;;21.20;99.90;;;;;;7417624;19;20138;-79
2023/09/17 03:43:15;;;;;;;0.30;0.30;;;20.90;99.90;;;;;;7420885;19;20145;-80
2023/09/17 03:45:42;;;;;;;0.20;0.20;;;20.90;99.90;;;;;;7421114;19;20217;-78
2023/09/17 03:48:08;;;;;;;0.10;0.10;;;20.90;99.90;;;;;;7421669;19;20138;-81
2023/09/17 03:50:39;;;;;;;0.25;0.20;;;21.00;99.90;;;;;;7419217;19;20134;-81
2023/09/17 03:53:06;;;;;;;0.40;0.40;;;20.70;99.90;;;;;;7395394;19;20143;-80
2023/09/17 03:55:33;;;;;;;0.10;0.10;;;20.50;99.90;;;;;;7392312;19;20142;-80
2023/09/17 03:58:00;;;;;;;0.20;0.20;;;20.50;99.90;;;;;;7392373;19;20161;-80
2023/09/17 04:00:26;;;;;;;0.30;0.30;;;20.30;99.90;;;;;;7390743;19;20151;-80
2023/09/17 04:02:52;;;;;;;0.20;0.20;;;20.30;99.90;;;;;;7390751;19;20165;-80
2023/09/17 04:05:21;;;;;;;0.17;0.17;;;20.40;99.90;;;;;;7390452;19;20154;-80
2023/09/17 04:07:47;;;;;;;0.20;0.20;;;20.70;99.90;;;;;;7391761;19;20476;-79
2023/09/17 04:10:15;;;;;;;0.10;0.10;;;20.90;99.90;;;;;;7392219;19;20250;-80
2023/09/17 04:12:42;;;;;;;0.20;0.20;;;20.70;99.90;;;;;;7393786;19;20608;-80
2023/09/17 04:15:27;;;;;;;0.20;0.20;;;20.50;99.90;;;;;;7392129;19;20600;-80
2023/09/17 04:17:53;;;;;;;0.40;0.30;;;20.50;99.90;;;;;;7393190;19;20458;-79
2023/09/17 04:20:20;;;;;;;0.25;0.25;;;20.60;99.90;;;;;;7391398;19;20147;-80
2023/09/17 04:22:48;;;;;;;0.25;0.25;;;20.70;99.90;;;;;;7390624;19;20138;-78
2023/09/17 04:25:15;;;;;;;0.20;0.20;;;20.60;99.90;;;;;;7391309;19;20516;-80
2023/09/17 04:27:41;;;;;;;0.30;0.30;;;20.50;99.90;;;;;;7393117;19;20131;-79
2023/09/17 04:30:08;;;;;;;0.30;0.30;;;20.30;99.90;;;;;;7391240;19;20309;-79
2023/09/17 04:32:38;;;;;;;0.47;0.47;;;20.40;99.90;;;;;;7392420;19;20145;-78
2023/09/17 04:35:05;;;;;;;0.30;0.30;;;20.60;99.90;;;;;;7392400;19;20131;-80
2023/09/17 04:37:36;;;;;;;0.17;0.17;;;20.80;99.90;;;;;;7390470;19;20161;-80
2023/09/17 04:40:08;;;;;;;0.40;0.40;;;20.70;99.90;;;;;;7390512;19;20177;-78
2023/09/17 04:42:43;;;;;;;0.25;0.25;;;20.70;99.90;;;;;;7390146;19;20594;-78
2023/09/17 04:45:09;;;;;;;0.15;0.15;;;20.60;99.90;;;;;;7391907;19;20158;-79
2023/09/17 04:47:36;;;;;;;0.45;0.45;;;20.60;99.90;;;;;;7390310;19;20218;-78
2023/09/17 04:50:12;;;;;;;0.38;0.38;;;20.60;99.90;;;;;;7390033;19;20492;-80
2023/09/17 04:52:38;;;;;;;0.10;0.10;;;20.40;99.90;;;;;;7391722;19;20165;-79
2023/09/17 04:55:05;;;;;;;0.20;0.20;;;20.30;99.90;;;;;;7391703;19;20138;-79
2023/09/17 04:57:31;;;;;;;0.13;0.13;;;20.20;99.90;;;;;;7392895;19;20492;-79
2023/09/17 05:00:10;;;;;;;0.30;0.20;;;20.10;99.90;;;;;;7391362;19;20237;-80
2023/09/17 05:02:39;;;;;;;0.20;0.20;;;20.20;99.90;;;;;;7389876;19;20153;-79
2023/09/17 05:05:08;;;;;;;0.20;0.20;;;20.40;99.90;;;;;;7385738;19;20373;-78
2023/09/17 05:07:36;;;;;;;0.30;0.30;;;20.70;99.90;;;;;;7389812;19;20176;-80
2023/09/17 05:10:02;;;;;;;0.40;0.40;;;20.60;99.90;;;;;;7389536;19;20169;-78
2023/09/17 05:12:28;;;;;;;0.40;0.40;;;20.50;99.90;;;;;;7389390;19;20131;-79
2023/09/17 05:14:53;;;;;;;0.20;0.20;;;20.40;99.90;;;;;;7388666;19;20170;-79
2023/09/17 05:17:19;;;;;;;0.20;0.20;;;20.30;99.90;;;;;;7390104;19;20458;-78
2023/09/17 05:19:45;;;;;;;0.25;0.25;;;20.40;99.90;;;;;;7388266;19;20143;-78
2023/09/17 05:22:11;;;;;;;0.30;0.30;;;20.70;99.90;;;;;;7392541;19;20142;-80
2023/09/17 05:24:37;;;;;;;0.22;0.22;;;20.90;99.90;;;;;;7387170;19;20138;-80
2023/09/17 05:27:03;;;;;;;0.10;0.10;;;21.00;99.90;;;;;;7392388;19;20139;-79
2023/09/17 05:29:30;;;;;;;0.38;0.38;;;20.80;99.90;;;;;;7389752;19;20471;-79
2023/09/17 05:31:56;;;;;;;0.50;0.50;;;20.50;99.90;;;;;;7391165;19;20143;-81
2023/09/17 05:34:22;;;;;;;0.22;0.22;;;20.50;99.90;;;;;;7388120;19;20479;-80
2023/09/17 05:36:48;;;;;;;0.20;0.20;;;20.80;99.90;;;;;;7389758;19;20135;-80
2023/09/17 05:39:14;;;;;;;0.30;0.30;;;20.90;99.90;;;;;;7389865;19;20150;-80
2023/09/17 05:41:40;;;;;;;0.50;0.50;;;21.00;99.90;;;;;;7387189;19;20504;-79
2023/09/17 05:44:06;;;;;;;0.20;0.20;;;21.10;99.90;;;;;;7389348;19;20257;-78
2023/09/17 05:46:32;;;;;;;0.10;0.10;;;21.20;99.90;;;;;;7388352;19;20488;-79
2023/09/17 05:48:57;;;;;;;0.30;0.30;;;21.00;99.90;;;;;;7390007;19;20131;-78
2023/09/17 05:51:23;;;;;;;0.28;0.28;;;20.60;99.90;;;;;;7388547;19;20166;-80
2023/09/17 05:53:49;;;;;;;0.30;0.30;;;20.40;99.90;;;;;;7387403;19;20230;-79
2023/09/17 05:56:14;;;;;;;0.30;0.30;;;20.80;99.90;;;;;;7389398;19;20198;-80
2023/09/17 05:58:40;;;;;;;0.20;0.20;;;20.90;99.90;;;;;;7388253;19;20141;-78
2023/09/17 06:01:06;;;;;;;0.30;0.30;;;20.80;99.90;;;;;;7388769;19;20159;-78
2023/09/17 06:03:33;;;;;;;0.40;0.40;;;20.70;99.90;;;;;;7389995;19;20135;-78
2023/09/17 06:05:58;;;;;;;0.20;0.20;;;20.60;99.90;;;;;;7386200;19;20154;-77
2023/09/17 06:08:28;;;;;;;0.30;0.30;;;20.90;99.90;;;;;;7387973;19;20605;-78
2023/09/17 06:10:55;;;;;;;0.38;0.38;;;21.00;99.90;;;;;;7388411;19;20135;-78
2023/09/17 06:13:21;;;;;;;0.22;0.20;;;21.20;99.90;;;;;;7388773;19;20202;-80
2023/09/17 06:15:47;;;;;;;0.20;0.20;;;21.30;99.90;;;;;;7388201;19;20154;-79
2023/09/17 06:18:13;;;;;;;0.40;0.40;;;21.40;99.90;;;;;;7387806;19;21812;-79
2023/09/17 06:20:39;;;;;;;0.30;0.30;;;21.40;99.90;;;;;;7388560;19;20130;-79
2023/09/17 06:23:05;;;;;;;0.25;0.25;;;21.40;99.90;;;;;;7388509;19;20261;-80
2023/09/17 06:25:31;;;;;;;0.20;0.20;;;21.40;99.90;;;;;;7386365;19;20127;-79
2023/09/17 06:27:56;;;;;;;0.32;0.32;;;21.40;99.90;;;;;;7389092;19;20161;-80
2023/09/17 06:30:22;;;;;;;0.10;0.10;;;21.30;99.90;;;;;;7388101;19;20510;-79
2023/09/17 06:32:48;;;;;;;0.30;0.30;;;21.30;99.90;;;;;;7387341;19;20135;-77
2023/09/17 06:35:14;;;;;;;0.35;0.30;;;21.30;99.90;;;;;;7390141;19;20138;-80
2023/09/17 06:37:40;;;;;;;0.20;0.20;;;21.30;99.90;;;;;;7388144;19;20600;-81
2023/09/17 06:40:08;;;;;;;0.30;0.30;;;21.30;99.90;;;;;;7387593;19;20201;-79
2023/09/17 06:42:34;;;;;;;0.30;0.30;;;21.30;99.90;;;;;;7389167;19;20159;-80
2023/09/17 06:44:59;;;;;;;0.20;0.20;;;21.40;99.90;;;;;;7386197;19;20138;-78
2023/09/17 06:47:25;;;;;;;0.20;0.20;;;21.40;99.90;;;;;;7387717;19;20126;-77
2023/09/17 06:49:51;;;;;;;0.17;0.17;;;21.40;99.90;;;;;;7388155;19;20467;-78
2023/09/17 06:52:16;;;;;;;0.20;0.20;;;21.50;99.90;;;;;;7388048;19;20142;-80
2023/09/17 06:54:43;;;;;;;0.38;0.38;;;21.50;99.90;;;;;;7389001;19;20156;-80
2023/09/17 06:57:09;;;;;;;0.30;0.30;;;21.50;99.90;;;;;;7389063;19;20147;-80
2023/09/17 06:59:35;;;;;;;0.20;0.20;;;21.60;99.90;;;;;;7386527;19;20251;-80
2023/09/17 07:02:01;;;;;;;0.15;0.15;;;21.60;99.90;;;;;;7387678;19;20528;-80
2023/09/17 07:04:27;;;;;;;0.20;0.20;;;21.70;99.90;;;;;;7386683;19;20147;-81
2023/09/17 07:06:54;;;;;;;0.30;0.20;;;21.70;99.90;;;;;;7387496;19;20637;-80
2023/09/17 07:09:20;;;;;;;0.10;0.10;;;21.80;99.90;;;;;;7388899;19;20683;-81
2023/09/17 07:11:45;;;;;;;0.50;0.50;;;21.70;99.90;;;;;;7388403;19;20147;-81
2023/09/17 07:14:11;;;;;;;0.20;0.20;;;21.60;99.90;;;;;;7385989;19;20206;-83
2023/09/17 07:16:38;;;;;;;0.40;0.40;;;21.80;99.90;;;;;;7387838;19;20164;-85
2023/09/17 07:19:05;;;;;;;0.20;0.20;;;21.90;99.90;;;;;;7388799;19;20322;-83
2023/09/17 07:21:34;;;;;;;0.30;0.30;;;22.00;99.90;;;;;;7385605;19;20139;-83
2023/09/17 07:24:00;;;;;;;0.25;0.25;;;22.20;99.90;;;;;;7386828;19;20142;-85
2023/09/17 07:26:26;;;;;;;0.10;0.10;;;22.20;99.90;;;;;;7387994;19;20134;-85
2023/09/17 07:28:51;;;;;;;0.20;0.20;;;22.40;99.90;;;;;;7394434;19;20488;-85
2023/09/17 07:31:17;;;;;;;0.85;0.40;;;22.40;99.90;;;;;;7394985;19;20157;-85
2023/09/17 07:33:44;;;;;;;0.50;0.50;;;22.40;99.90;;;;;;7393719;19;20167;-82
2023/09/17 07:36:11;;;;;;;0.20;0.20;;;22.50;99.90;;;;;;7391304;19;20151;-81
2023/09/17 07:38:37;;;;;;;0.10;0.10;;;22.60;99.90;;;;;;7393245;19;20249;-84
2023/09/17 07:41:03;;;;;;;0.20;0.20;;;22.60;99.90;;;;;;7391894;19;20154;-83
2023/09/17 07:43:28;;;;;;;0.32;0.32;;;22.60;99.90;;;;;;7393751;19;20138;-82
2023/09/17 07:45:54;;;;;;;0.20;0.20;;;22.50;99.90;;;;;;7393730;19;20876;-83
2023/09/17 07:48:20;;;;;;;0.40;0.40;;;22.50;99.90;;;;;;7392282;19;20143;-83
2023/09/17 07:50:55;;;;;;;0.30;0.30;;;22.50;99.90;;;;;;7390333;19;20626;-84
2023/09/17 07:53:21;;;;;;;0.28;0.20;;;22.50;99.90;;;;;;7393053;19;20150;-83
2023/09/17 07:55:47;;;;;;;0.38;0.38;;;22.50;99.90;;;;;;7391802;19;20169;-80
2023/09/17 07:58:13;;;;;;;0.30;0.30;;;22.60;99.90;;;;;;7392535;19;20199;-82
2023/09/17 08:00:39;;;;;;;0.30;0.30;;;22.70;99.90;;;;;;7391611;19;20139;-80
2023/09/17 08:03:04;;;;;;;0.32;0.30;;;22.80;99.90;;;;;;7387464;19;20495;-80
2023/09/17 08:05:30;;;;;;;0.20;0.20;;;22.80;99.90;;;;;;7377089;19;20193;-81
2023/09/17 08:07:56;;;;;;;0.30;0.30;;;22.80;99.90;;;;;;7383913;19;20154;-80
2023/09/17 08:10:22;;;;;;;0.63;0.63;;;22.80;99.90;;;;;;7390179;19;20123;-80
2023/09/17 08:12:48;;;;;;;0.10;0.10;;;23.00;99.90;;;;;;7390730;19;20141;-78
2023/09/17 08:15:17;;;;;;;0.65;0.65;;;22.90;99.90;;;;;;7391324;19;20147;-77
2023/09/17 08:17:43;;;;;;;0.25;0.25;;;23.00;99.90;;;;;;7386565;19;20662;-78
2023/09/17 08:20:09;;;;;;;0.17;0.17;;;23.10;99.90;;;;;;7391051;19;20476;-76
2023/09/17 08:22:35;;;;;;;0.20;0.20;;;23.30;99.90;;;;;;7389800;19;20134;-78
2023/09/17 08:25:01;;;;;;;0.60;0.60;;;23.30;99.90;;;;;;7390916;19;20182;-78
2023/09/17 08:27:27;;;;;;;0.15;0.15;;;23.40;99.90;;;;;;7391483;19;20615;-79
2023/09/17 08:29:53;;;;;;;0.40;0.40;;;23.50;99.90;;;;;;7389671;19;20892;-78
2023/09/17 08:32:18;;;;;;;0.32;0.32;;;23.60;99.90;;;;;;7392149;19;20135;-79
2023/09/17 08:34:44;;;;;;;0.20;0.20;;;23.70;99.90;;;;;;7392595;19;20157;-79
2023/09/17 08:37:10;;;;;;;0.38;0.30;;;23.90;99.90;;;;;;7390127;19;20135;-79
2023/09/17 08:39:35;;;;;;;0.13;0.13;;;23.90;99.90;;;;;;7389748;19;20201;-75
2023/09/17 08:42:03;;;;;;;0.35;0.35;;;24.00;99.90;;;;;;7390944;19;20142;-78
2023/09/17 08:44:31;;;;;;;0.50;0.50;;;23.90;99.90;;;;;;7388075;19;20463;-79
2023/09/17 08:46:59;;;;;;;0.38;0.32;;;23.80;99.90;;;;;;7390198;19;20133;-77
2023/09/17 08:49:25;;;;;;;0.40;0.40;;;23.60;99.90;;;;;;7388799;19;20177;-78
2023/09/17 08:51:55;;;;;;;0.20;0.20;;;23.50;99.90;;;;;;7389500;19;20142;-80
2023/09/17 08:54:25;;;;;;;0.30;0.30;;;23.70;99.90;;;;;;7388305;19;20151;-79
2023/09/17 08:56:54;;;;;;;0.43;0.28;;;23.80;99.90;;;;;;7391897;19;20149;-80
2023/09/17 08:59:25;;;;;;;0.30;0.30;;;23.90;99.90;;;;;;7391150;19;20145;-79
2023/09/17 09:01:53;;;;;;;0.20;0.20;;;24.00;99.90;;;;;;7390406;19;20217;-81
2023/09/17 09:04:22;;;;;;;0.68;0.68;;;24.20;99.90;;;;;;7390991;19;20192;-76
2023/09/17 09:06:48;;;;;;;0.28;0.28;;;24.30;99.90;;;;;;7390529;19;20169;-79
2023/09/17 09:09:15;;;;;;;0.30;0.30;;;24.40;99.90;;;;;;7390142;19;20544;-82
2023/09/17 09:11:42;;;;;;;0.30;0.30;;;24.60;99.90;;;;;;7390304;19;20590;-83
2023/09/17 09:14:08;;;;;;;0.30;0.30;;;24.90;99.90;;;;;;7389351;19;20138;-83
2023/09/17 09:16:38;;;;;;;0.38;0.38;;;24.90;99.90;;;;;;7388019;19;20231;-81
2023/09/17 09:19:06;;;;;;;0.30;0.30;;;25.10;99.90;;;;;;7388713;19;20138;-82
2023/09/17 09:21:32;;;;;;;0.20;0.20;;;25.10;99.90;;;;;;7385768;19;20180;-79
2023/09/17 09:23:57;;;;;;;0.50;0.50;;;25.30;99.90;;;;;;7388203;19;20142;-82
2023/09/17 09:26:37;;;;;;;0.17;0.17;;;25.40;99.90;;;;;;7388728;19;20143;-83
2023/09/17 09:29:05;;;;;;;0.20;0.20;;;25.70;99.90;;;;;;7388155;19;20146;-82
2023/09/17 09:31:32;;;;;;;0.40;0.40;;;26.00;99.90;;;;;;7390183;19;20575;-85
2023/09/17 09:33:59;;;;;;;0.20;0.20;;;26.20;99.90;;;;;;7389754;19;20142;-83
2023/09/17 09:36:29;;;;;;;0.40;0.40;;;26.40;99.90;;;;;;7387974;19;20150;-82
2023/09/17 09:38:56;;;;;;;0.43;0.43;;;26.60;99.90;;;;;;7388846;19;20585;-80
2023/09/17 09:41:23;;;;;;;0.20;0.20;;;26.60;99.90;;;;;;7386533;19;20214;-82
2023/09/17 09:43:50;;;;;;;0.20;0.20;;;26.70;99.90;;;;;;7387875;19;20139;-82
2023/09/17 09:46:17;;;;;;;0.15;0.15;;;26.90;99.90;;;;;;7389297;19;20143;-81
2023/09/17 09:48:43;;;;;;;0.22;0.22;;;27.00;99.90;;;;;;7386016;19;20135;-82
2023/09/17 09:51:09;;;;;;;0.30;0.30;;;27.10;99.90;;;;;;7387178;19;20149;-82
2023/09/17 09:53:34;;;;;;;0.28;0.20;;;27.20;99.90;;;;;;7388553;19;20142;-83
2023/09/17 09:56:03;;;;;;;0.25;0.25;;;27.30;99.90;;;;;;7388958;19;20530;-82
2023/09/17 09:58:29;;;;;;;0.10;0.10;;;27.40;99.90;;;;;;7386940;19;20147;-83
2023/09/17 10:00:57;;;;;;;0.17;0.17;;;27.40;99.90;;;;;;7386554;19;20150;-83
2023/09/17 10:03:24;;;;;;;0.35;0.35;;;27.20;99.90;;;;;;7387416;19;20150;-84
2023/09/17 10:05:50;;;;;;;0.20;0.20;;;27.20;99.90;;;;;;7386726;19;20146;-83
2023/09/17 10:08:17;;;;;;;0.28;0.28;;;27.40;99.90;;;;;;7386805;19;20222;-82
2023/09/17 10:10:43;;;;;;;0.30;0.30;;;27.40;99.90;;;;;;7387724;19;20177;-80
2023/09/17 10:13:12;;;;;;;0.28;0.28;;;27.50;99.90;;;;;;7386331;19;20221;-84
2023/09/17 10:15:41;;;;;;;0.22;0.22;;;27.70;99.90;;;;;;7388611;19;20174;-83
2023/09/17 10:18:10;;;;;;;0.85;0.20;;;27.60;99.90;;;;;;7387559;19;20146;-83
2023/09/17 10:20:38;;;;;;;0.30;0.30;;;27.40;99.90;;;;;;7386136;19;20164;-81
2023/09/17 10:23:05;;;;;;;0.20;0.20;;;27.40;99.90;;;;;;7387308;19;20130;-83
2023/09/17 10:25:32;;;;;;;0.20;0.20;;;27.40;99.90;;;;;;7385476;19;20218;-84
2023/09/17 10:28:02;;;;;;;0.30;0.30;;;27.40;99.90;;;;;;7388385;19;20157;-82
2023/09/17 10:30:32;;;;;;;0.20;0.20;;;27.50;99.90;;;;;;7389442;19;20150;-82
2023/09/17 10:33:00;;;;;;;0.20;0.20;;;27.70;99.90;;;;;;7386765;19;20138;-83
2023/09/17 10:35:27;;;;;;;0.17;0.17;;;27.80;99.90;;;;;;7388104;19;20175;-84
2023/09/17 10:37:54;;;;;;;0.28;0.28;;;27.80;99.90;;;;;;7388300;19;20486;-83
2023/09/17 10:40:25;;;;;;;0.47;0.47;;;27.60;99.90;;;;;;7388798;19;20134;-82
2023/09/17 10:42:52;;;;;;;0.20;0.20;;;27.20;99.90;;;;;;7389469;19;20207;-83
2023/09/17 10:45:20;;;;;;;0.22;0.22;;;27.00;99.90;;;;;;7388747;19;20133;-83
2023/09/17 10:47:50;;;;;;;0.20;0.20;;;27.00;99.90;;;;;;7388609;19;20162;-83
2023/09/17 10:50:18;;;;;;;0.10;0.10;;;27.30;99.90;;;;;;7389456;19;20150;-83
2023/09/17 10:52:45;;;;;;;0.20;0.20;;;27.60;99.90;;;;;;7389425;19;20143;-82
2023/09/17 10:55:11;;;;;;;0.55;0.40;;;27.70;99.90;;;;;;7388509;19;20137;-84
2023/09/17 10:57:41;;;;;;;0.40;0.40;;;27.90;99.90;;;;;;7386524;19;20184;-82
2023/09/17 11:00:13;;;;;;;0.20;0.20;;;27.70;99.90;;;;;;7387431;19;20167;-83
2023/09/17 11:02:47;;;;;;;0.28;0.28;;;27.80;99.90;;;;;;7394162;19;20142;-84
2023/09/17 11:05:17;;;;;;;0.43;0.35;;;27.90;99.90;;;;;;7396001;19;20145;-83
2023/09/17 11:07:44;;;;;;;0.20;0.20;;;27.90;99.90;;;;;;7395606;19;20222;-83
2023/09/17 11:10:14;;;;;;;0.20;0.20;;;28.00;99.90;;;;;;7393818;19;20162;-82
2023/09/17 11:12:41;;;;;;;0.25;0.25;;;28.00;99.90;;;;;;7396206;19;20156;-83
2023/09/17 11:15:08;;;;;;;0.25;0.22;;;28.00;99.90;;;;;;7395807;19;20525;-82
2023/09/17 11:17:34;;;;;;;0.30;0.30;;;27.90;99.90;;;;;;7394471;19;20154;-82
2023/09/17 11:20:00;;;;;;;0.52;0.52;;;28.00;99.90;;;;;;7394275;19;20149;-83
2023/09/17 11:22:34;;;;;;;0.30;0.30;;;28.10;99.90;;;;;;7395050;19;20556;-85
2023/09/17 11:25:03;;;;;;;0.20;0.20;;;28.10;99.90;;;;;;7394876;19;20144;-83
2023/09/17 11:28:07;;;;;;;0.10;0.10;;;28.30;99.90;;;;;;7395460;19;20131;-84
2023/09/17 11:31:02;;;;;;;0.10;0.10;;;28.20;99.90;;;;;;7390696;19;20623;-82
2023/09/17 11:33:28;;;;;;;0.20;0.20;;;28.30;99.90;;;;;;7394209;19;20543;-83
2023/09/17 11:36:01;;;;;;;0.30;0.30;;;28.30;99.90;;;;;;7392928;19;20132;-83
2023/09/17 11:38:29;;;;;;;0.15;0.15;;;28.40;99.90;;;;;;7394252;19;20557;-83
2023/09/17 11:41:02;;;;;;;0.10;0.10;;;28.50;99.90;;;;;;7394036;19;20162;-83
2023/09/17 11:43:28;;;;;;;0.52;0.40;;;28.50;99.90;;;;;;7395876;19;20157;-84
2023/09/17 11:45:54;;;;;;;0.20;0.20;;;28.50;99.90;;;;;;7394829;19;20139;-82
2023/09/17 11:48:21;;;;;;;0.20;0.20;;;28.50;99.90;;;;;;7398222;19;20465;-83
2023/09/17 11:50:47;;;;;;;0.17;0.17;;;28.40;99.90;;;;;;7395663;19;20141;-84
2023/09/17 11:53:15;;;;;;;0.20;0.20;;;28.40;99.90;;;;;;7395005;19;20145;-83
2023/09/17 11:55:41;;;;;;;0.10;0.10;;;28.40;99.90;;;;;;7395422;19;20218;-84
2023/09/17 11:58:35;;;;;;;0.28;0.20;;;28.40;99.90;;;;;;7393605;19;20529;-83
2023/09/17 12:01:07;;;;;;;0.10;0.10;;;28.40;99.90;;;;;;7392544;19;20594;-83
2023/09/17 12:03:33;;;;;;;0.13;0.13;;;28.40;99.90;;;;;;7392866;19;20130;-82
2023/09/17 12:05:59;;;;;;;0.10;0.10;;;28.40;99.90;;;;;;7389984;19;20245;-81
2023/09/17 12:08:26;;;;;;;0.10;0.10;;;28.40;99.90;;;;;;7392963;19;20153;-82
2023/09/17 12:10:56;;;;;;;0.20;0.20;;;28.40;99.90;;;;;;7392618;19;20147;-82
2023/09/17 12:13:23;;;;;;;0.10;0.10;;;28.50;99.90;;;;;;7392388;19;20519;-82
2023/09/17 12:15:51;;;;;;;0.20;0.20;;;28.60;99.90;;;;;;7394968;19;20142;-83
2023/09/17 12:18:17;;;;;;;0.30;0.30;;;28.60;99.90;;;;;;7391947;19;20583;-83
2023/09/17 12:20:59;;;;;;;0.10;0.10;;;28.50;99.90;;;;;;7392456;19;20130;-83
2023/09/17 12:23:37;;;;;;;0.60;0.20;;;28.60;99.90;;;;;;7391925;19;20222;-83
2023/09/17 12:26:05;;;;;;;0.40;0.20;;;28.60;99.90;;;;;;7394616;19;20182;-82
2023/09/17 12:28:31;;;;;;;0.17;0.17;;;28.70;99.90;;;;;;7391807;19;20135;-83
2023/09/17 12:30:57;;;;;;;0.30;0.20;;;28.60;99.90;;;;;;7396381;19;20131;-82
2023/09/17 12:33:24;;;;;;;0.20;0.20;;;28.60;99.90;;;;;;7391907;19;20154;-84
2023/09/17 12:35:51;;;;;;;0.10;0.10;;;28.70;99.90;;;;;;7392050;19;20138;-83
2023/09/17 12:38:17;;;;;;;0.22;0.22;;;28.70;99.90;;;;;;7392072;19;20159;-81
2023/09/17 12:40:42;;;;;;;0.20;0.20;;;28.70;99.90;;;;;;7390533;19;20642;-82
2023/09/17 12:43:08;;;;;;;0.25;0.25;;;28.90;99.90;;;;;;7392228;19;20156;-83
2023/09/17 12:45:36;;;;;;;0.10;0.10;;;28.90;99.90;;;;;;7392471;19;20167;-82
2023/09/17 12:48:03;;;;;;;0.25;0.25;;;28.90;99.90;;;;;;7391097;19;20139;-82
2023/09/17 12:50:29;;;;;;;0.30;0.30;;;28.90;99.90;;;;;;7392710;19;20150;-83